Time;durP1;ratioP1;P1;durP2;ratioP2;P2;SDS_P1;SDS_P2;PMS_P1;PMS_P2;Temp;Humidity;BMP_temperature;BMP_pressure;BME280_temperature;BME280_humidity;BME280_pressure;Samples;Min_cycle;Max_cycle;Signal;HPM_P1;HPM_P2
2021/04/09 00:02:14;;;;;;;14.60;12.07;;;;;;;3.11;57.55;100835.00;1818719;78;21838;-87
2021/04/09 00:04:41;;;;;;;13.63;12.33;;;;;;;3.09;57.63;100835.61;1824312;78;21659;-85
2021/04/09 00:07:10;;;;;;;13.37;11.97;;;;;;;3.05;57.93;100827.59;1821010;78;21200;-87
2021/04/09 00:09:39;;;;;;;12.93;11.63;;;;;;;3.03;58.01;100834.78;1805543;78;21508;-85
2021/04/09 00:12:08;;;;;;;12.97;11.50;;;;;;;2.98;58.14;100833.86;1824281;77;21415;-85
2021/04/09 00:14:42;;;;;;;12.47;11.27;;;;;;;2.96;58.26;100837.56;1817882;78;21147;-84
2021/04/09 00:17:09;;;;;;;12.03;10.40;;;;;;;2.87;58.47;100844.44;1787377;78;21811;-85
2021/04/09 00:19:37;;;;;;;14.00;11.77;;;;;;;2.82;58.64;100843.48;1787117;78;21162;-86
2021/04/09 00:22:05;;;;;;;19.37;15.97;;;;;;;2.77;58.72;100843.51;1797742;78;21247;-86
2021/04/09 00:24:32;;;;;;;21.40;16.50;;;;;;;2.72;59.11;100846.53;1803314;77;21881;-83
2021/04/09 00:27:00;;;;;;;22.40;17.77;;;;;;;2.68;59.46;100855.64;1805789;78;21240;-85
2021/04/09 00:29:27;;;;;;;21.53;19.23;;;;;;;2.63;59.83;100863.06;1807642;78;21669;-84
2021/04/09 00:31:54;;;;;;;25.00;22.27;;;;;;;2.63;59.76;100863.89;1802257;78;21318;-85
2021/04/09 00:34:23;;;;;;;21.43;19.20;;;;;;;2.62;60.12;100862.69;1809884;78;21273;-83
2021/04/09 00:36:51;;;;;;;21.00;18.90;;;;;;;2.60;60.29;100860.67;1805311;77;21796;-85
2021/04/09 00:39:18;;;;;;;19.40;17.50;;;;;;;2.57;60.53;100867.03;1790959;77;21315;-83
2021/04/09 00:41:46;;;;;;;18.83;16.37;;;;;;;2.55;60.60;100871.58;1808556;77;21198;-84
2021/04/09 00:44:13;;;;;;;;;;;;;;;2.58;60.71;100872.66;1818455;77;21229;-85
2021/04/09 00:46:41;;;;;;;20.23;17.77;;;;;;;2.58;61.05;100873.12;1820219;77;20215;-83
2021/04/09 00:49:10;;;;;;;26.93;16.23;;;;;;;2.53;61.18;100871.70;1821556;77;21229;-83
2021/04/09 00:51:40;;;;;;;25.97;20.97;;;;;;;2.53;61.43;100878.27;1820721;78;21344;-83
2021/04/09 00:54:10;;;;;;;22.83;17.93;;;;;;;2.55;61.52;100876.02;1794344;77;21356;-83
2021/04/09 00:56:38;;;;;;;21.80;17.17;;;;;;;2.54;61.70;100877.78;1815945;76;21165;-83
2021/04/09 00:59:06;;;;;;;20.73;16.00;;;;;;;2.51;61.75;100877.56;1795663;77;21182;-84
2021/04/09 01:01:34;;;;;;;20.17;16.10;;;;;;;2.55;61.90;100883.91;1811905;77;21119;-84
2021/04/09 01:04:04;;;;;;;21.33;15.33;;;;;;;2.51;62.09;100880.20;1791130;77;22188;-85
2021/04/09 01:06:31;;;;;;;18.83;14.43;;;;;;;2.57;62.19;100889.88;1794276;77;21208;-84
2021/04/09 01:08:59;;;;;;;21.53;15.67;;;;;;;2.31;62.28;100848.89;1822010;77;21164;-84
2021/04/09 01:11:26;;;;;;;23.13;15.73;;;;;;;2.57;62.16;100883.30;1816887;77;21045;-84
2021/04/09 01:13:53;;;;;;;18.13;15.13;;;;;;;2.59;62.36;100890.11;1782887;79;21200;-83
2021/04/09 01:16:44;;;;;;;16.40;14.47;;;;;;;2.59;62.46;100884.84;1784747;78;21200;-82
2021/04/09 01:20:09;;;;;;;17.87;12.73;;;;;;;2.63;62.32;100892.02;1744992;78;21213;-82
2021/04/09 01:22:54;;;;;;;13.57;12.23;;;;;;;2.63;62.47;100892.02;1767906;79;21600;-82
2021/04/09 01:26:04;;;;;;;16.07;13.47;;;;;;;2.64;62.63;100889.75;1739569;80;21406;-81
2021/04/09 01:28:51;;;;;;;15.03;13.37;;;;;;;2.61;62.69;100898.72;1771119;79;21347;-81
2021/04/09 01:31:35;;;;;;;;;;;;;;;2.61;62.73;100901.84;1769666;80;22351;-82
2021/04/09 01:34:04;;;;;;;18.33;14.00;;;;;;;2.57;62.81;100900.41;1760022;79;20177;-82
2021/04/09 01:36:44;;;;;;;18.70;14.13;;;;;;;2.52;62.93;100905.56;1744042;80;21295;-81
2021/04/09 01:39:31;;;;;;;17.33;14.93;;;;;;;2.49;62.99;100911.06;1734441;80;21244;-82
2021/04/09 01:42:02;;;;;;;24.07;15.33;;;;;;;2.51;63.44;100914.41;1675010;84;22126;-81
2021/04/09 01:44:32;;;;;;;20.50;14.80;;;;;;;2.46;63.42;100911.78;1693976;83;21339;-80
2021/04/09 01:47:03;;;;;;;17.43;14.20;;;;;;;2.47;63.42;100907.72;1673746;84;21345;-81
2021/04/09 01:49:33;;;;;;;15.30;13.70;;;;;;;2.48;63.61;100917.27;1673743;84;21227;-81
2021/04/09 01:52:01;;;;;;;15.07;12.53;;;;;;;2.52;63.51;100919.19;1675834;84;21165;-82
2021/04/09 01:54:31;;;;;;;17.60;13.50;;;;;;;2.53;63.45;100921.70;1693782;82;21239;-82
2021/04/09 01:57:00;;;;;;;14.20;11.63;;;;;;;2.58;63.46;100924.44;1662330;82;21164;-82
2021/04/09 01:59:29;;;;;;;15.93;11.80;;;;;;;2.59;63.38;100924.81;1679028;84;21475;-82
2021/04/09 02:01:57;;;;;;;13.27;11.77;;;;;;;2.60;63.45;100926.47;1700690;83;21275;-82
2021/04/09 02:04:27;;;;;;;13.67;11.37;;;;;;;2.64;63.44;100939.77;1699849;82;21751;-81
2021/04/09 02:06:56;;;;;;;14.50;12.17;;;;;;;2.63;63.54;100939.39;1696489;83;21431;-81
2021/04/09 02:09:24;;;;;;;13.80;11.90;;;;;;;2.60;63.50;100935.22;1693354;83;21197;-81
2021/04/09 02:11:54;;;;;;;13.97;12.40;;;;;;;2.59;63.43;100935.34;1678340;83;21322;-81
2021/04/09 02:14:22;;;;;;;14.73;12.23;;;;;;;2.62;63.40;100942.97;1699481;84;21184;-81
2021/04/09 02:16:54;;;;;;;17.77;12.63;;;;;;;2.62;63.41;100948.23;1706324;82;21370;-82
2021/04/09 02:19:24;;;;;;;13.57;12.17;;;;;;;2.60;63.42;100951.47;1668089;84;21875;-82
2021/04/09 02:21:51;;;;;;;15.23;13.17;;;;;;;2.59;63.48;100948.50;1698019;82;21231;-82
2021/04/09 02:24:19;;;;;;;15.23;13.10;;;;;;;2.52;63.68;100955.57;1715573;82;21123;-82
2021/04/09 02:26:47;;;;;;;13.97;11.90;;;;;;;2.51;63.76;100953.05;1726639;81;21205;-82
2021/04/09 02:29:15;;;;;;;14.63;12.97;;;;;;;2.48;63.78;100954.11;1729648;81;21706;-80
2021/04/09 02:31:43;;;;;;;17.60;13.53;;;;;;;2.50;63.88;100956.63;1727306;81;21255;-82
2021/04/09 02:34:10;;;;;;;14.03;12.10;;;;;;;2.48;63.83;100956.74;1711515;81;21166;-82
2021/04/09 02:36:37;;;;;;;15.10;13.57;;;;;;;2.45;64.09;100960.09;1690784;83;21226;-83
2021/04/09 02:39:13;;;;;;;18.13;13.07;;;;;;;2.39;64.09;100956.63;1696506;84;21218;-82
2021/04/09 02:41:46;;;;;;;14.47;12.60;;;;;;;2.33;64.26;100959.27;1686697;84;21710;-80
2021/04/09 02:44:15;;;;;;;15.60;13.33;;;;;;;2.32;64.53;100961.55;1685179;82;21696;-80
2021/04/09 02:47:03;;;;;;;15.73;13.93;;;;;;;2.23;64.61;100969.67;1698643;82;21157;-82
2021/04/09 02:49:41;;;;;;;13.05;11.73;;;;;;;2.25;64.65;100968.24;1711253;82;21226;-81
2021/04/09 02:52:22;;;;;;;15.47;13.73;;;;;;;2.22;64.93;100968.47;1693943;82;21330;-81
2021/04/09 02:54:57;;;;;;;16.00;11.97;;;;;;;2.25;65.00;100974.33;1683917;83;21181;-82
2021/04/09 02:57:27;;;;;;;17.57;12.70;;;;;;;2.24;64.95;100976.62;1735681;81;21087;-82
2021/04/09 02:59:56;;;;;;;16.43;13.50;;;;;;;2.26;65.02;100979.11;1758528;80;21317;-83
2021/04/09 03:02:25;;;;;;;14.23;12.83;;;;;;;2.34;64.72;100984.14;1736153;81;21113;-80
2021/04/09 03:04:54;;;;;;;13.47;12.07;;;;;;;2.41;64.75;100981.89;1740397;80;21203;-81
2021/04/09 03:07:21;;;;;;;17.93;13.03;;;;;;;2.37;65.02;100990.13;1745311;80;21168;-83
2021/04/09 03:09:49;;;;;;;14.77;11.93;;;;;;;2.30;65.15;100991.09;1710208;82;21202;-79
2021/04/09 03:12:20;;;;;;;12.33;11.07;;;;;;;2.20;65.58;100994.05;1728241;80;21094;-80
2021/04/09 03:14:51;;;;;;;13.67;12.00;;;;;;;2.13;65.75;101007.69;1742124;81;21240;-79
2021/04/09 03:17:27;;;;;;;13.73;12.17;;;;;;;2.11;65.80;101005.65;1743209;81;21207;-80
2021/04/09 03:20:13;;;;;;;14.70;11.90;;;;;;;2.10;65.81;101012.34;1739021;80;21267;-96
2021/04/09 03:26:54;;;;;;;;;;;;;;;;;;;;;
2021/04/09 03:33:11;;;;;;;13.87;12.53;;;;;;;2.23;65.70;101034.60;1654155;80;21169;-95
2021/04/09 03:36:32;;;;;;;15.93;11.80;;;;;;;2.31;65.65;101028.27;1831514;76;25652;-96
2021/04/09 03:55:55;;;;;;;14.30;12.23;;;;;;;3.12;64.05;101065.83;1680230;83;21169;-95
2021/04/09 03:59:48;;;;;;;16.77;13.87;;;;;;;3.62;63.05;101062.23;1865997;74;27956;-94
2021/04/09 04:13:18;;;;;;;15.77;12.70;;;;;;;5.41;57.92;101077.43;1763295;77;23689;-96
2021/04/09 04:16:19;;;;;;;14.27;12.63;;;;;;;5.86;56.50;101078.23;1876661;75;22209;-96
2021/04/09 04:18:53;;;;;;;13.03;11.70;;;;;;;6.24;55.74;101080.03;1830838;77;21158;-95
2021/04/09 04:21:20;;;;;;;16.93;14.07;;;;;;;6.54;54.17;101087.93;1851697;76;21207;-93
2021/04/09 04:23:51;;;;;;;14.93;13.40;;;;;;;6.45;53.75;101090.11;1761879;79;21263;-94
2021/04/09 04:26:27;;;;;;;16.27;13.43;;;;;;;6.14;54.21;101095.11;1828210;76;21305;-96
2021/04/09 04:32:41;;;;;;;15.03;13.53;;;;;;;5.50;55.71;101107.02;1666810;83;21214;-96
2021/04/09 04:36:20;;;;;;;16.83;14.10;;;;;;;5.20;56.67;101118.00;1653735;83;21130;-96
2021/04/09 04:39:22;;;;;;;15.70;14.00;;;;;;;4.96;57.20;101114.36;1675640;84;22058;-96
2021/04/09 04:53:34;;;;;;;18.33;16.33;;;;;;;4.93;58.79;101136.23;1657456;84;21225;-96
2021/04/09 04:56:45;;;;;;;16.62;14.85;;;;;;;5.78;56.91;101138.45;1570197;89;21234;-93
2021/04/09 04:59:50;;;;;;;20.90;15.73;;;;;;;6.90;54.36;101133.14;1815501;77;22952;-86
2021/04/09 05:02:19;;;;;;;18.53;15.43;;;;;;;7.46;52.81;101143.27;1718632;80;21197;-93
2021/04/09 05:05:13;;;;;;;19.20;16.37;;;;;;;8.10;51.06;101138.77;1714120;82;21299;-95
2021/04/09 05:09:14;;;;;;;;;;;;;;;;;;;;;
2021/04/09 05:22:41;;;;;;;16.77;14.30;;;;;;;11.07;43.12;101145.67;1740835;80;23155;-72
2021/04/09 05:25:22;;;;;;;16.00;14.40;;;;;;;11.12;42.58;101142.50;1760615;79;23572;-72
2021/04/09 05:27:50;;;;;;;16.53;14.93;;;;;;;11.08;42.75;101150.02;1724424;82;21221;-73
2021/04/09 05:30:20;;;;;;;18.13;16.23;;;;;;;11.20;42.87;101153.64;1720254;80;21334;-73
2021/04/09 05:32:48;;;;;;;18.87;16.37;;;;;;;11.31;42.00;101155.94;1701708;82;21698;-72
2021/04/09 05:35:17;;;;;;;15.97;14.37;;;;;;;11.50;41.83;101150.67;1685781;82;21096;-73
2021/04/09 05:37:45;;;;;;;15.93;14.37;;;;;;;11.78;41.34;101164.38;1670644;85;21242;-73
2021/04/09 05:40:15;;;;;;;16.23;14.53;;;;;;;12.01;40.97;101161.75;1627467;87;21684;-72
2021/04/09 05:42:43;;;;;;;16.73;15.03;;;;;;;12.14;40.38;101162.50;1635510;87;21172;-71
2021/04/09 05:45:11;;;;;;;15.70;14.20;;;;;;;12.29;40.44;101161.73;1634637;86;21648;-72
2021/04/09 05:47:39;;;;;;;17.47;15.77;;;;;;;12.48;39.63;101163.91;1632493;86;21186;-70
2021/04/09 05:50:06;;;;;;;17.40;15.70;;;;;;;12.33;39.63;101163.03;1628719;86;21197;-73
2021/04/09 05:52:33;;;;;;;17.27;15.57;;;;;;;11.74;40.23;101167.08;1627275;87;21209;-71
2021/04/09 05:55:00;;;;;;;16.37;14.70;;;;;;;11.14;41.33;101169.02;1625341;86;21757;-72
2021/04/09 05:57:26;;;;;;;16.93;15.33;;;;;;;10.42;42.74;101134.64;1633179;84;22229;-72
2021/04/09 05:59:53;;;;;;;18.10;15.47;;;;;;;10.26;43.15;101180.73;1649676;85;21700;-72
2021/04/09 06:02:21;;;;;;;17.83;15.33;;;;;;;9.96;44.05;101184.86;1650106;85;21125;-74
2021/04/09 06:04:48;;;;;;;19.97;16.37;;;;;;;9.69;44.65;101182.80;1648430;85;21225;-74
2021/04/09 06:07:16;;;;;;;23.27;17.90;;;;;;;9.45;45.45;101188.04;1646742;85;21328;-75
2021/04/09 06:09:42;;;;;;;19.17;17.23;;;;;;;9.31;45.84;101198.80;1650219;85;21186;-79
2021/04/09 06:12:10;;;;;;;19.33;17.27;;;;;;;9.04;46.51;101190.02;1645048;85;21049;-81
2021/04/09 06:14:37;;;;;;;21.07;17.80;;;;;;;8.87;46.75;101197.05;1597773;88;21313;-78
2021/04/09 06:17:05;;;;;;;20.90;17.40;;;;;;;8.66;47.58;101205.36;1644889;85;21301;-79
2021/04/09 06:19:33;;;;;;;25.57;18.43;;;;;;;8.51;48.29;101204.24;1640951;87;21335;-80
2021/04/09 06:22:01;;;;;;;21.37;19.07;;;;;;;8.46;48.05;101209.20;1630622;85;21319;-79
2021/04/09 06:24:28;;;;;;;21.20;18.40;;;;;;;8.39;48.30;101207.10;1641471;85;21198;-80
2021/04/09 06:26:55;;;;;;;21.43;18.97;;;;;;;8.49;48.40;101208.88;1643511;86;21333;-79
2021/04/09 06:29:24;;;;;;;23.33;18.63;;;;;;;8.62;48.16;101207.16;1643555;85;21185;-79
2021/04/09 06:31:51;;;;;;;20.53;17.67;;;;;;;8.80;48.02;101213.76;1642591;86;21332;-80
2021/04/09 06:34:19;;;;;;;21.10;17.77;;;;;;;9.03;47.34;101208.28;1633105;85;21073;-81
2021/04/09 06:36:46;;;;;;;22.10;17.77;;;;;;;9.19;47.14;101212.02;1633209;86;21208;-76
2021/04/09 06:39:13;;;;;;;21.37;18.53;;;;;;;9.25;47.04;101216.23;1629495;86;21786;-86
2021/04/09 06:41:40;;;;;;;20.33;17.87;;;;;;;9.25;46.80;101217.56;1619056;87;21217;-81
2021/04/09 06:44:07;;;;;;;20.33;18.20;;;;;;;9.23;46.59;101214.22;1613415;88;21164;-80
2021/04/09 06:46:36;;;;;;;21.37;18.90;;;;;;;9.30;46.63;101211.75;1611822;88;21370;-81
2021/04/09 06:49:03;;;;;;;21.10;18.77;;;;;;;9.51;46.94;101216.19;1627351;88;21698;-80
2021/04/09 06:51:34;;;;;;;21.47;19.17;;;;;;;9.88;45.41;101220.80;1598645;88;21186;-82
2021/04/09 06:54:02;;;;;;;20.43;18.27;;;;;;;10.01;45.23;101226.50;1612684;88;21220;-82
2021/04/09 06:56:30;;;;;;;22.93;18.70;;;;;;;10.04;45.25;101227.98;1638562;85;21112;-83
2021/04/09 06:58:57;;;;;;;21.97;19.67;;;;;;;10.12;45.40;101222.70;1661527;84;21334;-81
2021/04/09 07:01:24;;;;;;;22.97;20.53;;;;;;;10.00;45.14;101231.98;1635965;85;21626;-83
2021/04/09 07:03:55;;;;;;;21.50;18.37;;;;;;;9.75;45.45;101234.06;1605863;87;21739;-80
2021/04/09 07:06:32;;;;;;;22.93;18.37;;;;;;;9.50;45.85;101235.80;1606706;87;21681;-82
2021/04/09 07:08:59;;;;;;;19.37;17.37;;;;;;;9.15;46.79;101240.76;1601592;88;21679;-81
2021/04/09 07:11:28;;;;;;;20.37;17.57;;;;;;;8.87;47.72;101237.41;1589592;88;21035;-81
2021/04/09 07:16:31;;;;;;;22.30;19.23;;;;;;;8.67;47.93;101241.59;1822883;76;23319;-80
2021/04/09 07:19:04;;;;;;;21.47;17.77;;;;;;;8.44;48.43;101243.03;1799562;78;21158;-79
2021/04/09 07:21:33;;;;;;;20.57;16.70;;;;;;;8.14;49.01;101243.73;1801177;78;21162;-80
2021/04/09 07:24:17;;;;;;;20.10;18.00;;;;;;;7.97;49.25;101239.56;1771558;77;21655;-79
2021/04/09 07:26:53;;;;;;;21.20;18.97;;;;;;;7.72;49.22;101203.96;1743396;81;21193;-80
2021/04/09 07:29:41;;;;;;;21.17;18.92;;;;;;;8.05;49.34;101249.44;1761957;80;21217;-82
2021/04/09 07:32:14;;;;;;;;;;;;;;;8.08;49.30;101248.29;1763674;81;21156;-82
2021/04/09 07:34:58;;;;;;;23.13;18.17;;;;;;;8.04;49.22;101245.09;1737932;81;20157;-79
2021/04/09 07:37:32;;;;;;;23.57;17.87;;;;;;;8.01;49.72;101244.59;1760447;81;21780;-79
2021/04/09 07:40:04;;;;;;;20.80;17.23;;;;;;;8.08;49.67;101240.33;1760646;81;21121;-81
2021/04/09 07:42:37;;;;;;;19.17;15.90;;;;;;;8.13;48.26;101248.69;1757618;81;21129;-82
2021/04/09 07:45:10;;;;;;;16.77;15.03;;;;;;;8.10;48.82;101244.98;1759128;81;21522;-81
2021/04/09 07:47:39;;;;;;;16.83;15.03;;;;;;;8.15;48.38;101248.04;1755745;81;21163;-83
2021/04/09 07:50:12;;;;;;;15.80;13.50;;;;;;;8.25;48.36;101252.81;1759226;80;21787;-81
2021/04/09 07:52:43;;;;;;;16.63;13.33;;;;;;;8.39;46.82;101248.78;1760768;80;21159;-80
2021/04/09 07:55:22;;;;;;;13.97;12.53;;;;;;;8.50;46.59;101250.41;1759073;80;21155;-82
2021/04/09 07:57:50;;;;;;;13.07;11.87;;;;;;;8.61;46.07;101250.66;1712154;82;21637;-81
2021/04/09 08:00:26;;;;;;;11.10;9.67;;;;;;;8.70;45.33;101251.92;1719675;80;21704;-80
2021/04/09 08:02:56;;;;;;;11.50;10.40;;;;;;;8.81;44.71;101249.50;1744636;80;21293;-82
2021/04/09 08:05:26;;;;;;;11.83;10.63;;;;;;;8.93;43.52;101242.12;1747692;81;21147;-82
2021/04/09 08:07:54;;;;;;;10.83;9.77;;;;;;;9.04;43.64;101245.86;1752174;81;21312;-83
2021/04/09 08:10:32;;;;;;;11.30;10.27;;;;;;;9.14;43.55;101250.57;1744755;81;21202;-83
2021/04/09 08:13:02;;;;;;;10.60;9.53;;;;;;;9.22;42.45;101244.97;1706164;81;21099;-82
2021/04/09 08:15:32;;;;;;;11.83;10.63;;;;;;;9.10;41.62;101248.39;1693249;83;21698;-85
2021/04/09 08:18:05;;;;;;;10.50;9.00;;;;;;;8.98;42.29;101243.80;1697951;84;21160;-84
2021/04/09 08:20:42;;;;;;;11.40;8.30;;;;;;;9.00;41.86;101243.16;1692801;83;21168;-84
2021/04/09 08:23:14;;;;;;;10.58;8.20;;;;;;;9.09;41.04;101244.88;1712925;82;21051;-84
2021/04/09 08:25:42;;;;;;;8.67;7.87;;;;;;;9.18;40.85;101243.62;1714459;82;21261;-83
2021/04/09 08:28:12;;;;;;;8.90;8.00;;;;;;;9.29;40.03;101242.84;1708386;82;21181;-83
2021/04/09 08:30:39;;;;;;;8.43;7.50;;;;;;;9.39;40.07;101245.39;1709687;84;21854;-83
2021/04/09 08:33:07;;;;;;;10.40;8.43;;;;;;;9.35;39.75;101239.55;1667680;83;21191;-81
2021/04/09 08:35:35;;;;;;;6.73;5.83;;;;;;;9.28;39.49;101245.66;1682070;85;21987;-81
2021/04/09 08:38:03;;;;;;;7.43;5.97;;;;;;;9.29;38.83;101239.36;1688318;84;21204;-83
2021/04/09 08:40:34;;;;;;;8.07;7.37;;;;;;;9.38;38.78;101241.08;1703660;82;21190;-82
2021/04/09 08:43:01;;;;;;;8.23;7.43;;;;;;;9.43;38.64;101240.08;1701850;82;21385;-85
2021/04/09 08:45:30;;;;;;;12.47;8.60;;;;;;;9.49;38.92;101235.95;1694873;81;21047;-85
2021/04/09 08:47:59;;;;;;;9.97;8.97;;;;;;;9.57;38.90;101232.49;1712988;82;21256;-83
2021/04/09 08:50:28;;;;;;;8.43;7.07;;;;;;;9.67;38.88;101243.36;1700577;82;21245;-83
2021/04/09 08:52:55;;;;;;;7.40;6.70;;;;;;;9.75;38.08;101247.88;1715337;82;21339;-82
2021/04/09 08:55:38;;;;;;;8.53;7.77;;;;;;;9.79;37.43;101242.56;1723556;82;22354;-83
2021/04/09 08:58:14;;;;;;;7.53;6.83;;;;;;;9.81;38.01;101237.08;1721404;82;21159;-84
2021/04/09 09:00:42;;;;;;;7.28;6.08;;;;;;;9.90;37.72;101236.94;1702626;82;21167;-84
2021/04/09 09:03:28;;;;;;;7.63;5.53;;;;;;;9.96;36.35;101240.79;1698144;84;21956;-80
2021/04/09 09:06:05;;;;;;;5.90;5.37;;;;;;;9.96;34.43;101242.63;1678854;84;21167;-83
2021/04/09 09:08:50;;;;;;;7.53;6.83;;;;;;;9.80;34.89;101236.26;1683104;84;21796;-86
2021/04/09 09:11:49;;;;;;;7.63;6.03;;;;;;;9.67;36.38;101238.55;1690733;83;21746;-85
2021/04/09 09:14:38;;;;;;;7.10;6.27;;;;;;;9.53;36.41;101235.49;1697737;83;21191;-84
2021/04/09 09:17:28;;;;;;;6.70;5.73;;;;;;;9.51;36.48;101238.81;1677858;85;21337;-84
2021/04/09 09:20:16;;;;;;;6.90;6.20;;;;;;;9.63;35.97;101238.02;1698199;82;21164;-84
2021/04/09 09:22:50;;;;;;;8.00;7.23;;;;;;;8.90;35.48;101097.52;1709047;83;21113;-82
2021/04/09 09:25:33;;;;;;;7.43;6.67;;;;;;;9.96;36.02;101237.30;1714755;83;21341;-82
2021/04/09 09:28:00;;;;;;;9.27;6.50;;;;;;;10.12;36.37;101246.67;1711664;83;21234;-85
2021/04/09 09:30:37;;;;;;;6.53;5.93;;;;;;;10.21;35.83;101245.70;1719590;83;21379;-85
2021/04/09 09:33:26;;;;;;;5.87;4.87;;;;;;;10.16;34.68;101247.19;1720590;83;21326;-81
2021/04/09 09:36:09;;;;;;;4.77;4.23;;;;;;;10.02;34.77;101249.96;1688395;82;21172;-86
2021/04/09 09:38:57;;;;;;;5.80;5.13;;;;;;;9.86;34.33;101252.91;1694036;83;21333;-83
2021/04/09 09:41:44;;;;;;;4.75;4.35;;;;;;;9.80;34.94;101252.23;1717875;83;22531;-83
2021/04/09 09:44:35;;;;;;;4.72;4.33;;;;;;;9.78;34.69;101246.23;1720899;82;21617;-81
2021/04/09 09:47:18;;;;;;;5.47;4.73;;;;;;;9.77;35.13;101255.20;1674072;84;21177;-82
2021/04/09 09:50:09;;;;;;;4.63;3.60;;;;;;;9.80;34.50;101250.91;1719946;83;21172;-81
2021/04/09 09:53:05;;;;;;;4.63;4.20;;;;;;;9.83;33.92;101251.92;1718170;83;21216;-84
2021/04/09 09:55:42;;;;;;;3.20;2.57;;;;;;;9.80;33.71;101244.25;1676333;83;21121;-85
2021/04/09 09:58:19;;;;;;;3.77;2.13;;;;;;;9.87;32.84;101246.61;1703472;83;21311;-83
2021/04/09 10:00:53;;;;;;;3.70;3.40;;;;;;;9.93;32.04;101254.45;1691586;83;21129;-81
2021/04/09 10:03:33;;;;;;;2.50;2.30;;;;;;;9.93;31.12;101253.94;1694555;84;21167;-83
2021/04/09 10:06:07;;;;;;;2.50;2.30;;;;;;;9.89;30.46;101251.27;1698516;84;21188;-85
2021/04/09 10:08:38;;;;;;;4.27;3.07;;;;;;;9.89;30.75;101253.11;1669447;84;21176;-90
2021/04/09 10:11:16;;;;;;;2.97;2.67;;;;;;;9.91;31.64;101244.45;1699833;84;21200;-81
2021/04/09 10:13:49;;;;;;;3.63;2.03;;;;;;;10.00;32.00;101247.96;1687281;84;21366;-85
2021/04/09 10:16:25;;;;;;;7.13;3.33;;;;;;;10.00;30.12;101252.81;1689314;84;21180;-85
2021/04/09 10:19:00;;;;;;;2.37;2.17;;;;;;;9.94;30.73;101250.77;1701798;84;21177;-84
2021/04/09 10:21:38;;;;;;;1.63;1.53;;;;;;;9.89;29.87;101251.78;1671438;84;21354;-84
2021/04/09 10:24:17;;;;;;;3.20;1.73;;;;;;;9.84;30.58;101250.09;1694560;83;21104;-83
2021/04/09 10:26:55;;;;;;;2.63;2.40;;;;;;;9.88;30.45;101249.59;1705991;84;21169;-82
2021/04/09 10:29:33;;;;;;;2.30;2.10;;;;;;;9.90;30.13;101246.77;1692683;84;21199;-83
2021/04/09 10:32:01;;;;;;;2.72;2.10;;;;;;;9.94;29.94;101248.97;1695143;84;21294;-83
2021/04/09 10:34:32;;;;;;;2.33;1.80;;;;;;;10.01;29.78;101249.64;1687396;82;21278;-82
2021/04/09 10:37:01;;;;;;;1.73;1.60;;;;;;;10.03;29.62;101248.47;1702983;83;21165;-84
2021/04/09 10:39:29;;;;;;;1.90;1.70;;;;;;;10.05;29.20;101248.31;1715455;82;21216;-83
2021/04/09 10:42:02;;;;;;;2.03;1.83;;;;;;;10.06;29.08;101246.00;1701314;83;21371;-82
2021/04/09 10:44:30;;;;;;;1.97;1.83;;;;;;;10.08;29.35;101244.83;1687328;83;21156;-83
2021/04/09 10:47:02;;;;;;;3.70;1.50;;;;;;;10.14;29.14;101242.84;1649450;85;21216;-81
2021/04/09 10:49:35;;;;;;;1.93;1.40;;;;;;;10.22;29.42;101236.69;1708242;84;21329;-81
2021/04/09 10:52:09;;;;;;;2.57;2.37;;;;;;;10.32;29.82;101240.09;1705333;82;21317;-82
2021/04/09 10:54:44;;;;;;;3.67;3.10;;;;;;;10.46;29.87;101243.09;1691353;84;21217;-83
2021/04/09 10:57:20;;;;;;;2.57;2.37;;;;;;;10.53;30.06;101237.44;1709340;83;21434;-83
2021/04/09 10:59:52;;;;;;;2.43;2.23;;;;;;;10.62;30.26;101232.42;1700289;84;21217;-84
2021/04/09 11:02:22;;;;;;;4.03;2.57;;;;;;;10.63;29.55;101238.61;1677374;84;21662;-86
2021/04/09 11:04:59;;;;;;;3.60;3.17;;;;;;;10.56;30.02;101238.42;1678844;83;21208;-83
2021/04/09 11:07:48;;;;;;;3.13;2.93;;;;;;;10.50;30.07;101234.59;1685680;84;21334;-84
2021/04/09 11:10:36;;;;;;;5.77;5.37;;;;;;;10.39;30.73;101237.58;1685593;84;21153;-84
2021/04/09 11:13:08;;;;;;;3.57;3.27;;;;;;;10.25;30.74;101235.04;1692119;83;21303;-83
2021/04/09 11:15:40;;;;;;;9.97;6.53;;;;;;;10.23;30.98;101229.55;1673749;84;21219;-83
2021/04/09 11:18:12;;;;;;;4.10;3.80;;;;;;;10.11;31.17;101206.36;1658936;85;21195;-84
2021/04/09 11:20:46;;;;;;;5.27;4.77;;;;;;;10.37;30.97;101237.42;1691234;84;21362;-83
2021/04/09 11:23:16;;;;;;;4.27;3.87;;;;;;;10.41;31.20;101237.42;1696034;84;21194;-82
2021/04/09 11:25:49;;;;;;;4.03;3.50;;;;;;;10.46;31.24;101231.92;1680609;84;21321;-85
2021/04/09 11:28:27;;;;;;;5.23;3.70;;;;;;;10.51;31.38;101230.94;1665994;84;21172;-84
2021/04/09 11:31:01;;;;;;;5.90;3.77;;;;;;;10.51;30.43;101226.94;1677306;84;21207;-85
2021/04/09 11:33:38;;;;;;;4.00;3.60;;;;;;;10.45;31.30;101212.95;1687963;84;21242;-82
2021/04/09 11:36:24;;;;;;;2.83;2.63;;;;;;;10.38;30.54;101226.60;1666014;85;21203;-84
2021/04/09 11:39:16;;;;;;;3.53;2.90;;;;;;;10.30;30.72;101223.43;1684073;84;21685;-82
2021/04/09 11:41:56;;;;;;;3.10;2.80;;;;;;;10.28;30.70;101219.21;1670560;84;21357;-83
2021/04/09 11:44:35;;;;;;;3.17;2.87;;;;;;;10.32;30.45;101217.91;1658164;84;21270;-83
2021/04/09 11:47:27;;;;;;;2.50;2.33;;;;;;;10.40;30.36;101218.45;1667652;84;21458;-83
2021/04/09 11:50:14;;;;;;;4.07;2.50;;;;;;;10.45;30.32;101215.62;1669442;84;21196;-80
2021/04/09 11:53:01;;;;;;;2.50;2.30;;;;;;;10.48;29.92;101213.11;1647742;86;21196;-83
2021/04/09 11:55:41;;;;;;;1.93;1.60;;;;;;;10.47;30.09;101216.28;1673372;84;21213;-84
2021/04/09 11:58:23;;;;;;;4.70;2.63;;;;;;;10.52;30.17;101206.44;1651239;85;21385;-84
2021/04/09 12:02:59;;;;;;;2.83;2.67;;;;;;;10.69;30.30;101206.76;1757667;79;23396;-83
2021/04/09 12:05:32;;;;;;;4.90;3.40;;;;;;;10.58;31.05;101205.77;1716941;81;21185;-84
2021/04/09 12:08:01;;;;;;;4.07;3.53;;;;;;;10.57;30.76;101197.45;1692535;82;21501;-84
2021/04/09 12:10:32;;;;;;;3.10;2.90;;;;;;;10.59;30.47;101198.63;1724085;81;22129;-85
2021/04/09 12:12:59;;;;;;;3.97;3.20;;;;;;;10.56;30.76;101198.95;1708441;81;21111;-85
2021/04/09 12:15:48;;;;;;;5.53;3.83;;;;;;;10.58;30.72;101195.09;1711698;82;21203;-83
2021/04/09 12:18:14;;;;;;;3.05;2.60;;;;;;;10.53;30.97;101190.80;1676034;83;21199;-83
2021/04/09 12:20:42;;;;;;;3.43;3.07;;;;;;;10.53;31.60;101198.79;1709126;82;21205;-83
2021/04/09 12:23:11;;;;;;;3.60;3.30;;;;;;;10.54;31.45;101195.61;1708913;81;21825;-83
2021/04/09 12:25:41;;;;;;;4.03;3.23;;;;;;;10.51;31.53;101202.95;1699217;82;21212;-84
2021/04/09 12:28:10;;;;;;;3.27;3.07;;;;;;;10.48;31.63;101199.78;1688249;83;21233;-84
2021/04/09 12:30:38;;;;;;;8.23;3.40;;;;;;;10.50;31.90;101191.12;1667609;84;21180;-84
2021/04/09 12:33:05;;;;;;;2.97;2.77;;;;;;;10.51;31.61;101196.80;1688691;81;21354;-84
2021/04/09 12:35:32;;;;;;;2.70;2.50;;;;;;;10.46;30.75;101208.45;1688808;84;21638;-85
2021/04/09 12:38:01;;;;;;;2.40;2.30;;;;;;;10.42;31.18;101201.79;1699122;83;21221;-86
2021/04/09 12:40:28;;;;;;;3.00;2.80;;;;;;;10.36;31.22;101209.95;1687800;84;21706;-85
2021/04/09 12:42:55;;;;;;;2.33;2.13;;;;;;;10.32;31.01;101200.59;1678300;84;21212;-85
2021/04/09 12:45:22;;;;;;;4.53;3.57;;;;;;;10.28;31.55;101198.75;1665611;84;21125;-86
2021/04/09 12:47:51;;;;;;;3.47;3.17;;;;;;;10.23;31.29;101194.41;1673617;84;21201;-85
2021/04/09 12:50:19;;;;;;;4.10;3.37;;;;;;;10.20;31.55;101197.39;1654602;85;21244;-84
2021/04/09 12:52:46;;;;;;;3.73;3.40;;;;;;;10.23;31.58;101193.08;1640587;86;21665;-85
2021/04/09 12:55:14;;;;;;;3.47;3.27;;;;;;;10.30;31.62;101194.13;1652854;85;21203;-87
2021/04/09 12:57:41;;;;;;;5.17;3.40;;;;;;;10.30;31.12;101186.13;1644443;87;21724;-86
2021/04/09 13:00:09;;;;;;;5.37;3.27;;;;;;;10.26;31.81;101179.41;1638076;86;21408;-88
2021/04/09 13:02:38;;;;;;;3.67;3.20;;;;;;;10.29;31.73;101176.42;1594132;88;21176;-83
2021/04/09 13:05:07;;;;;;;3.93;3.60;;;;;;;10.03;31.46;101121.13;1594482;88;22336;-85